Pescadero, California
Current Conditions -  °F | °C
As of 5:35 PM on Friday 24 Oct 2014 (Local Time) from KHAF Reporting Station
Overcast Overcast  
Wind Chill: 64°   Ceiling: 1800
Heat Index: 64°   Visibility: 7mi
Dew Point: 59°   Wind: 14mph
Humidity: 83%   Direction: 170°S
Pressure: 29.91"   Gusts: 18mph
Location:  37.25°N, 122.38°W
Report Text: KHAF 250035Z AUTO 17012G16KT 7SM BKN018 OVC026 18/15 A2991 RMK AO2
Loading
Personal Weather Stations






























Interactive Weather Map
Tropical Storm Tracking
New forecast layout! Learn more

10-Day Weather Forecast

Advertisements
Track Severe Weather on mobile